createdAt,value
2023-03-06T00:01:11.354Z,0.10
2023-03-06T00:03:39.905Z,0.10
2023-03-06T00:06:08.976Z,0.10
2023-03-06T00:08:37.602Z,0.10
2023-03-06T00:11:06.509Z,0.10
2023-03-06T00:13:36.440Z,0.10
2023-03-06T00:16:06.678Z,0.10
2023-03-06T00:18:35.853Z,0.20
2023-03-06T00:21:08.537Z,0.10
2023-03-06T00:23:37.138Z,0.10
2023-03-06T00:26:08.838Z,0.10
2023-03-06T00:28:40.290Z,0.10
2023-03-06T00:31:08.878Z,0.10
2023-03-06T00:33:37.655Z,0.20
2023-03-06T00:36:06.914Z,0.20
2023-03-06T00:38:35.722Z,0.10
2023-03-06T00:41:08.981Z,0.10
2023-03-06T00:43:39.046Z,0.20
2023-03-06T00:46:09.844Z,0.20
2023-03-06T00:48:38.585Z,0.10
2023-03-06T00:51:08.162Z,0.10
2023-03-06T00:53:36.730Z,0.10
2023-03-06T00:56:05.519Z,0.10
2023-03-06T00:58:34.473Z,0.10
2023-03-06T01:01:04.955Z,0.10
2023-03-06T01:03:33.563Z,0.10
2023-03-06T01:06:02.154Z,0.10
2023-03-06T01:08:30.730Z,0.10
2023-03-06T01:10:59.238Z,0.10
2023-03-06T01:13:27.855Z,0.10
2023-03-06T01:15:56.493Z,0.10
2023-03-06T01:18:26.583Z,0.10
2023-03-06T01:20:55.213Z,0.10
2023-03-06T01:23:23.770Z,0.10
2023-03-06T01:25:52.404Z,0.10
2023-03-06T01:28:46.941Z,0.10
2023-03-06T01:31:15.631Z,0.10
2023-03-06T01:33:45.685Z,0.10
2023-03-06T01:36:15.894Z,0.00
2023-03-06T01:38:44.416Z,0.00
2023-03-06T01:41:16.499Z,0.00
2023-03-06T01:43:47.340Z,-0.10
2023-03-06T01:46:38.830Z,-0.10
2023-03-06T01:49:13.890Z,-0.20
2023-03-06T01:51:48.771Z,-0.20
2023-03-06T01:54:22.113Z,-0.20
2023-03-06T01:56:55.357Z,-0.20
2023-03-06T01:59:27.035Z,-0.30
2023-03-06T02:01:57.779Z,-0.30
2023-03-06T02:04:28.278Z,-0.30
2023-03-06T02:06:59.368Z,-0.30
2023-03-06T02:09:31.042Z,-0.30
2023-03-06T02:11:59.747Z,-0.30
2023-03-06T02:14:28.763Z,-0.40
2023-03-06T02:16:57.573Z,-0.40
2023-03-06T02:19:39.276Z,-0.40
2023-03-06T02:22:08.045Z,-0.40
2023-03-06T02:24:41.703Z,-0.40
2023-03-06T02:27:14.398Z,-0.50
2023-03-06T02:29:43.866Z,-0.50
2023-03-06T02:32:12.508Z,-0.60
2023-03-06T02:34:59.273Z,-0.60
2023-03-06T02:37:30.203Z,-0.60
2023-03-06T02:40:09.291Z,-0.70
2023-03-06T02:42:39.184Z,-0.80
2023-03-06T02:45:13.437Z,-0.80
2023-03-06T02:47:42.763Z,-0.80
2023-03-06T02:50:12.496Z,-0.80
2023-03-06T02:52:41.095Z,-0.80
2023-03-06T02:55:10.633Z,-0.80
2023-03-06T02:57:40.657Z,-0.80
2023-03-06T03:00:10.759Z,-0.80
2023-03-06T03:02:40.050Z,-0.70
2023-03-06T03:05:09.225Z,-0.70
2023-03-06T03:07:43.923Z,-0.70
2023-03-06T03:10:14.400Z,-0.60
2023-03-06T03:12:44.703Z,-0.50
2023-03-06T03:15:14.837Z,-0.50
2023-03-06T03:17:43.740Z,-0.40
2023-03-06T03:20:15.362Z,-0.40
2023-03-06T03:22:43.989Z,-0.40
2023-03-06T03:25:13.122Z,-0.40
2023-03-06T03:27:42.303Z,-0.30
2023-03-06T03:30:13.488Z,-0.40
2023-03-06T03:32:42.302Z,-0.30
2023-03-06T03:35:12.835Z,-0.30
2023-03-06T03:37:42.411Z,-0.30
2023-03-06T03:40:12.535Z,-0.30
2023-03-06T03:59:02.933Z,-0.30
2023-03-06T04:01:39.687Z,-0.30
2023-03-06T04:04:09.148Z,-0.30
2023-03-06T04:06:39.151Z,-0.30
2023-03-06T04:09:07.891Z,-0.30
2023-03-06T04:11:38.650Z,-0.30
2023-03-06T04:14:09.889Z,-0.30
2023-03-06T04:16:38.845Z,-0.30
2023-03-06T04:19:08.465Z,-0.30
2023-03-06T04:21:37.509Z,-0.30
2023-03-06T04:24:08.489Z,-0.20
2023-03-06T04:26:37.236Z,-0.20
2023-03-06T04:29:08.334Z,-0.20
2023-03-06T04:31:36.996Z,-0.20
2023-03-06T04:34:06.101Z,-0.20
2023-03-06T04:36:36.177Z,-0.20
2023-03-06T04:39:13.760Z,-0.20
2023-03-06T04:41:49.561Z,-0.20
2023-03-06T04:44:19.482Z,-0.20
2023-03-06T04:46:48.064Z,-0.20
2023-03-06T04:49:16.622Z,-0.20
2023-03-06T04:51:45.132Z,-0.20
2023-03-06T04:54:13.670Z,-0.20
2023-03-06T04:56:42.478Z,-0.20
2023-03-06T04:59:11.090Z,-0.20
2023-03-06T05:01:41.102Z,-0.20
2023-03-06T05:04:09.782Z,-0.20
2023-03-06T05:06:38.404Z,-0.20
2023-03-06T05:09:07.078Z,-0.20
2023-03-06T06:13:04.020Z,0.30
2023-03-06T06:15:32.606Z,0.40
2023-03-06T06:18:01.356Z,0.40
2023-03-06T06:20:29.903Z,0.40
2023-03-06T06:22:58.397Z,0.50
2023-03-06T06:25:26.909Z,0.60
2023-03-06T06:27:56.505Z,0.70
2023-03-06T06:30:26.608Z,0.70
2023-03-06T06:32:55.236Z,0.80
2023-03-06T06:35:23.989Z,0.90
2023-03-06T06:37:52.626Z,1.00
2023-03-06T06:40:24.397Z,1.10
2023-03-06T06:42:54.204Z,1.20
2023-03-06T06:45:22.760Z,1.20
2023-03-06T06:47:52.736Z,1.30
2023-03-06T06:50:21.505Z,1.40
2023-03-06T06:52:50.037Z,1.40
2023-03-06T06:55:18.726Z,1.50
2023-03-06T06:57:47.265Z,1.50
2023-03-06T07:00:18.033Z,1.50
2023-03-06T07:02:49.262Z,1.60
2023-03-06T07:05:21.791Z,1.60
2023-03-06T07:07:51.452Z,1.70
2023-03-06T07:10:21.227Z,1.80
2023-03-06T07:12:49.919Z,1.90
2023-03-06T07:15:19.434Z,2.00
2023-03-06T07:17:50.028Z,2.10
2023-03-06T07:20:21.237Z,2.20
2023-03-06T07:22:51.930Z,2.20
2023-03-06T07:25:21.298Z,2.30
2023-03-06T07:27:53.865Z,2.40
2023-03-06T07:32:54.563Z,2.50
2023-03-06T07:35:26.270Z,2.70
2023-03-06T07:37:55.290Z,2.70
2023-03-06T07:40:24.624Z,2.80
2023-03-06T07:42:57.751Z,2.90
2023-03-06T07:45:38.178Z,3.00
2023-03-06T07:48:07.199Z,3.10
2023-03-06T07:50:39.103Z,3.20
2023-03-06T07:53:07.675Z,3.40
2023-03-06T07:55:36.244Z,3.50
2023-03-06T07:58:04.754Z,3.50
2023-03-06T08:00:33.573Z,3.50
2023-03-06T08:03:02.362Z,3.50
2023-03-06T08:05:30.959Z,3.60
2023-03-06T08:08:00.897Z,3.70
2023-03-06T08:10:30.343Z,3.80
2023-03-06T08:12:59.056Z,4.00
2023-03-06T08:15:27.846Z,4.10
2023-03-06T08:17:56.447Z,4.00
2023-03-06T08:20:25.187Z,4.00
2023-03-06T08:22:53.759Z,4.10
2023-03-06T08:25:24.757Z,4.30
2023-03-06T08:27:53.889Z,4.40
2023-03-06T08:30:22.790Z,4.40
2023-03-06T08:32:51.359Z,4.50
2023-03-06T08:35:19.944Z,4.50
2023-03-06T08:37:48.683Z,4.60
2023-03-06T08:40:17.661Z,4.50
2023-03-06T08:42:49.136Z,4.50
2023-03-06T08:45:32.953Z,4.60
2023-03-06T08:48:01.502Z,4.60
2023-03-06T08:50:30.011Z,4.60
2023-03-06T08:52:58.787Z,4.70
2023-03-06T08:55:28.200Z,4.60
2023-03-06T08:57:58.773Z,4.70
2023-03-06T09:00:27.525Z,4.70
2023-03-06T09:02:56.163Z,4.80
2023-03-06T09:05:24.743Z,4.90
2023-03-06T09:07:53.487Z,4.90
2023-03-06T09:10:23.981Z,5.00
2023-03-06T09:12:54.797Z,5.20
2023-03-06T09:15:35.634Z,5.30
2023-03-06T09:18:04.243Z,5.50
2023-03-06T09:20:32.935Z,5.60
2023-03-06T09:23:01.520Z,5.50
2023-03-06T09:25:30.136Z,5.60
2023-03-06T09:28:10.810Z,5.60
2023-03-06T09:33:55.865Z,6.00
2023-03-06T09:36:24.863Z,6.30
2023-03-06T09:38:53.483Z,6.40
2023-03-06T09:41:28.366Z,6.50
2023-03-06T09:44:06.096Z,6.60
2023-03-06T09:46:48.308Z,6.60
2023-03-06T09:49:41.754Z,6.70
2023-03-06T09:52:31.952Z,6.80
2023-03-06T09:55:03.709Z,7.00
2023-03-06T09:57:36.352Z,7.10
2023-03-06T10:00:08.783Z,7.00
2023-03-06T10:02:41.907Z,6.90
2023-03-06T10:05:16.554Z,6.70
2023-03-06T10:07:48.043Z,6.70
2023-03-06T10:10:23.224Z,6.60
2023-03-06T10:13:00.329Z,6.80
2023-03-06T10:15:33.557Z,7.00
2023-03-06T10:18:04.394Z,7.10
2023-03-06T10:20:45.183Z,7.20
2023-03-06T10:23:39.893Z,7.20
2023-03-06T10:26:14.888Z,7.10
2023-03-06T10:28:48.281Z,7.00
2023-03-06T10:31:21.851Z,7.00
2023-03-06T10:33:56.591Z,7.10
2023-03-06T10:36:28.642Z,7.10
2023-03-06T10:38:59.195Z,7.00
2023-03-06T10:41:29.974Z,7.00
2023-03-06T10:44:24.790Z,7.10
2023-03-06T10:46:55.680Z,7.20
2023-03-06T10:49:28.431Z,7.30
2023-03-06T10:52:29.520Z,7.40
2023-03-06T10:55:24.022Z,7.40
2023-03-06T10:57:52.640Z,7.50
2023-03-06T11:00:30.937Z,7.60
2023-03-06T11:03:19.234Z,7.60
2023-03-06T11:06:32.418Z,7.70
2023-03-06T11:09:21.896Z,7.50
2023-03-06T11:11:50.622Z,7.40
2023-03-06T11:14:23.025Z,7.50
2023-03-06T11:16:53.827Z,7.40
2023-03-06T11:19:26.592Z,7.50
2023-03-06T11:22:03.818Z,7.30
2023-03-06T11:24:39.229Z,7.20
2023-03-06T11:27:22.289Z,7.30
2023-03-06T11:29:52.645Z,7.40
2023-03-06T11:32:25.921Z,7.50
2023-03-06T11:34:58.873Z,7.70
2023-03-06T11:37:38.700Z,7.70
2023-03-06T11:40:18.840Z,7.60
2023-03-06T11:42:54.044Z,7.70
2023-03-06T11:45:31.938Z,7.80
2023-03-06T11:48:12.012Z,7.80
2023-03-06T11:50:43.869Z,7.70
2023-03-06T11:53:15.440Z,7.70
2023-03-06T11:55:52.892Z,7.70
2023-03-06T11:58:44.227Z,7.90
2023-03-06T12:01:17.358Z,7.80
2023-03-06T12:04:26.093Z,7.70
2023-03-06T12:07:01.699Z,7.60
2023-03-06T12:09:40.565Z,7.60
2023-03-06T12:12:33.394Z,7.50
2023-03-06T12:15:19.304Z,7.50
2023-03-06T12:18:01.443Z,7.50
2023-03-06T12:20:44.984Z,7.60
2023-03-06T12:23:28.313Z,7.60
2023-03-06T12:26:05.177Z,7.60
2023-03-06T12:28:51.482Z,7.70
2023-03-06T12:31:41.545Z,7.70
2023-03-06T12:34:22.359Z,7.70
2023-03-06T12:37:01.684Z,7.40
2023-03-06T12:39:46.029Z,7.50
2023-03-06T12:42:29.773Z,7.30
2023-03-06T12:45:29.547Z,7.20
2023-03-06T12:47:59.429Z,7.00
2023-03-06T12:50:30.249Z,6.90
2023-03-06T12:53:03.254Z,6.70
2023-03-06T12:55:40.938Z,6.60
2023-03-06T12:58:49.028Z,6.60
2023-03-06T13:01:44.346Z,6.50
2023-03-06T13:04:36.200Z,6.50
2023-03-06T13:07:27.979Z,6.50
2023-03-06T13:10:16.662Z,6.50
2023-03-06T13:12:56.507Z,6.60
2023-03-06T13:15:42.218Z,6.70
2023-03-06T13:18:58.922Z,6.70
2023-03-06T13:22:02.601Z,6.60
2023-03-06T13:24:33.491Z,6.60
2023-03-06T13:27:06.895Z,6.60
2023-03-06T13:30:07.459Z,6.60
2023-03-06T13:32:39.258Z,6.70
2023-03-06T13:35:49.567Z,6.70
2023-03-06T13:38:54.565Z,6.80
2023-03-06T13:41:37.828Z,6.90
2023-03-06T13:44:48.901Z,6.90
2023-03-06T13:48:09.729Z,7.00
2023-03-06T13:50:42.383Z,6.90
2023-03-06T13:54:08.428Z,6.90
2023-03-06T13:57:18.521Z,6.70
2023-03-06T14:00:30.003Z,6.70
2023-03-06T14:03:31.416Z,6.80
2023-03-06T14:06:00.024Z,6.70
2023-03-06T14:08:31.654Z,6.60
2023-03-06T14:11:03.685Z,6.60
2023-03-06T14:13:47.208Z,6.70
2023-03-06T14:16:22.035Z,6.70
2023-03-06T14:18:52.554Z,6.60
2023-03-06T14:21:31.021Z,6.40
2023-03-06T14:27:18.797Z,6.30
2023-03-06T14:29:48.850Z,6.10
2023-03-06T14:32:19.030Z,5.90
2023-03-06T14:34:48.199Z,5.80
2023-03-06T14:37:25.340Z,5.70
2023-03-06T14:40:13.910Z,5.70
2023-03-06T14:42:42.542Z,5.70
2023-03-06T14:45:17.212Z,5.70
2023-03-06T14:47:50.981Z,5.70
2023-03-06T14:50:23.260Z,5.60
2023-03-06T14:52:53.687Z,5.50
2023-03-06T14:55:25.422Z,5.30
2023-03-06T14:57:57.862Z,5.30
2023-03-06T15:00:35.715Z,5.20
2023-03-06T15:03:08.248Z,5.20
2023-03-06T15:05:37.336Z,5.20
2023-03-06T15:08:09.508Z,5.20
2023-03-06T15:10:38.884Z,5.10
2023-03-06T15:13:12.112Z,5.20
2023-03-06T15:15:42.065Z,5.20
2023-03-06T15:18:33.867Z,5.20
2023-03-06T15:21:11.305Z,5.20
2023-03-06T15:23:42.137Z,5.20
2023-03-06T15:26:29.586Z,5.20
2023-03-06T15:29:09.339Z,5.20
2023-03-06T15:31:40.692Z,5.20
2023-03-06T15:34:24.636Z,5.30
2023-03-06T15:36:55.870Z,5.30
2023-03-06T15:39:36.294Z,5.30
2023-03-06T15:42:18.205Z,5.30
2023-03-06T15:44:53.094Z,5.30
2023-03-06T15:47:24.047Z,5.20
2023-03-06T15:49:53.398Z,5.20
2023-03-06T15:52:28.950Z,5.20
2023-03-06T15:54:57.491Z,5.10
2023-03-06T15:57:29.317Z,5.10
2023-03-06T15:59:59.491Z,5.00
2023-03-06T16:02:29.394Z,5.00
2023-03-06T16:04:57.939Z,4.90
2023-03-06T16:07:34.890Z,4.90
2023-03-06T16:10:03.620Z,4.90
2023-03-06T16:12:32.678Z,4.80
2023-03-06T16:15:02.860Z,4.80
2023-03-06T16:17:33.842Z,4.70
2023-03-06T16:20:02.457Z,4.70
2023-03-06T16:22:32.172Z,4.70
2023-03-06T16:25:00.704Z,4.60
2023-03-06T16:27:29.296Z,4.60
2023-03-06T16:29:57.897Z,4.60
2023-03-06T16:32:28.686Z,4.60
2023-03-06T16:34:58.760Z,4.50
2023-03-06T16:37:27.362Z,4.50
2023-03-06T16:39:55.914Z,4.40
2023-03-06T16:42:24.554Z,4.40
2023-03-06T16:44:53.097Z,4.30
2023-03-06T16:47:21.704Z,4.20
2023-03-06T16:49:52.050Z,4.20
2023-03-06T16:52:22.033Z,4.10
2023-03-06T16:54:50.706Z,4.10
2023-03-06T16:57:19.395Z,4.10
2023-03-06T16:59:48.133Z,4.00
2023-03-06T17:02:16.814Z,4.00
2023-03-06T17:04:45.430Z,4.00
2023-03-06T17:07:13.994Z,4.00
2023-03-06T17:09:44.108Z,4.00
2023-03-06T17:12:12.718Z,4.00
2023-03-06T17:14:41.963Z,4.00
2023-03-06T17:17:10.539Z,4.10
2023-03-06T17:19:39.140Z,4.00
2023-03-06T17:22:07.666Z,4.00
2023-03-06T17:24:37.540Z,3.90
2023-03-06T17:27:07.480Z,3.90
2023-03-06T17:29:36.073Z,3.90
2023-03-06T17:32:04.987Z,3.90
2023-03-06T17:34:33.850Z,3.90
2023-03-06T17:37:02.529Z,3.80
2023-03-06T17:39:33.592Z,3.70
2023-03-06T17:42:03.368Z,3.70
2023-03-06T17:44:34.559Z,3.60
2023-03-06T17:47:03.554Z,3.60
2023-03-06T17:49:32.496Z,3.60
2023-03-06T17:52:02.943Z,3.50
2023-03-06T17:54:33.135Z,3.50
2023-03-06T17:57:03.686Z,3.40
2023-03-06T17:59:35.392Z,3.30
2023-03-06T18:02:06.378Z,3.30
2023-03-06T18:04:35.140Z,3.30
2023-03-06T18:07:03.776Z,3.20
2023-03-06T18:09:32.355Z,3.20
2023-03-06T18:12:00.922Z,3.10
2023-03-06T18:14:29.997Z,3.10
2023-03-06T18:16:59.953Z,3.10
2023-03-06T18:19:28.678Z,3.10
2023-03-06T18:21:57.301Z,3.10
2023-03-06T18:24:27.539Z,3.10
2023-03-06T18:26:56.210Z,3.10
2023-03-06T18:29:24.724Z,3.10
2023-03-06T18:31:53.498Z,3.10
2023-03-06T18:34:23.785Z,3.10
2023-03-06T18:36:53.024Z,3.10
2023-03-06T18:39:22.473Z,3.10
2023-03-06T18:41:51.817Z,3.10
2023-03-06T18:44:20.513Z,3.10
2023-03-06T18:46:49.163Z,3.10
2023-03-06T18:49:18.028Z,3.10
2023-03-06T18:51:48.284Z,3.10
2023-03-06T18:54:16.836Z,3.00
2023-03-06T18:56:45.530Z,3.00
2023-03-06T18:59:18.632Z,3.00
2023-03-06T19:01:48.663Z,3.00
2023-03-06T19:04:17.418Z,2.90
2023-03-06T19:06:47.379Z,2.90
2023-03-06T19:09:15.988Z,2.80
2023-03-06T19:11:46.901Z,2.80
2023-03-06T19:14:15.777Z,2.80
2023-03-06T19:16:44.403Z,2.70
2023-03-06T19:19:12.979Z,2.70
2023-03-06T19:21:41.591Z,2.60
2023-03-06T19:24:14.087Z,2.60
2023-03-06T19:42:33.324Z,2.40
2023-03-06T19:45:01.898Z,2.40
2023-03-06T19:47:32.122Z,2.30
2023-03-06T19:50:00.739Z,2.30
2023-03-06T19:52:29.336Z,2.30
2023-03-06T20:01:17.474Z,2.30
2023-03-06T20:03:46.203Z,2.30
2023-03-06T20:06:17.463Z,2.30
2023-03-06T20:08:47.409Z,2.30
2023-03-06T20:11:20.006Z,2.30
2023-03-06T20:13:48.871Z,2.30
2023-03-06T20:16:19.880Z,2.30
2023-03-06T20:18:48.425Z,2.30
2023-03-06T20:21:16.970Z,2.30
2023-03-06T20:23:45.560Z,2.30
2023-03-06T20:26:15.218Z,2.30
2023-03-06T20:28:44.193Z,2.30
2023-03-06T20:31:16.757Z,2.30
2023-03-06T20:33:47.834Z,2.30
2023-03-06T20:36:18.662Z,2.30
2023-03-06T20:38:48.188Z,2.30
2023-03-06T20:41:17.193Z,2.30
2023-03-06T20:43:45.769Z,2.30
2023-03-06T20:46:15.066Z,2.30
2023-03-06T20:48:44.555Z,2.30
2023-03-06T20:51:19.631Z,2.30
2023-03-06T20:53:49.608Z,2.40
2023-03-06T20:56:20.820Z,2.40
2023-03-06T20:58:49.330Z,2.40
2023-03-06T21:01:21.947Z,2.40
2023-03-06T21:03:51.111Z,2.30
2023-03-06T21:06:21.791Z,2.40
2023-03-06T21:08:50.675Z,2.30
2023-03-06T21:24:32.314Z,2.30
2023-03-06T21:27:02.276Z,2.30
2023-03-06T21:29:30.843Z,2.30
2023-03-06T21:31:59.348Z,2.20
2023-03-06T21:34:27.961Z,2.20
2023-03-06T21:36:56.468Z,2.20
2023-03-06T21:39:57.597Z,2.20
2023-03-06T21:42:27.545Z,2.20
2023-03-06T21:44:56.088Z,2.20
2023-03-06T21:47:24.603Z,2.10
2023-03-06T21:49:53.101Z,2.10
2023-03-06T21:52:21.641Z,2.10
2023-03-06T21:54:50.573Z,2.10
2023-03-06T21:57:19.113Z,2.10
2023-03-06T21:59:49.000Z,2.10
2023-03-06T22:02:17.513Z,2.10
2023-03-06T22:04:46.091Z,2.10
2023-03-06T22:07:14.611Z,2.10
2023-03-06T22:09:43.258Z,2.10
2023-03-06T22:12:12.703Z,2.10
2023-03-06T22:14:41.538Z,2.10
2023-03-06T22:17:11.469Z,2.20
2023-03-06T22:19:39.957Z,2.10
2023-03-06T22:22:10.680Z,2.20
2023-03-06T22:24:39.460Z,2.10
2023-03-06T22:27:07.988Z,2.10
2023-03-06T22:29:36.627Z,2.10
2023-03-06T22:32:05.287Z,2.10
2023-03-06T22:34:35.735Z,2.00
2023-03-06T22:37:04.296Z,2.00
2023-03-06T22:39:32.846Z,1.90
2023-03-06T22:42:01.377Z,1.90
2023-03-06T22:44:29.948Z,1.90
2023-03-06T22:46:58.502Z,1.90
2023-03-06T22:49:27.352Z,1.80
2023-03-06T22:51:57.240Z,1.80
2023-03-06T22:54:25.785Z,1.80
2023-03-06T22:56:54.303Z,1.80
2023-03-06T22:59:22.829Z,1.80
2023-03-06T23:01:51.399Z,1.80
2023-03-06T23:04:19.941Z,1.80
2023-03-06T23:06:48.979Z,1.80
2023-03-06T23:09:21.603Z,1.80
2023-03-06T23:12:09.286Z,1.80
2023-03-06T23:14:56.743Z,1.80
2023-03-06T23:17:43.914Z,1.80
2023-03-06T23:20:31.146Z,1.80
2023-03-06T23:23:18.278Z,1.80
2023-03-06T23:25:49.005Z,1.80
2023-03-06T23:28:17.563Z,1.90
2023-03-06T23:30:46.336Z,1.90
2023-03-06T23:33:14.851Z,1.90
2023-03-06T23:35:44.270Z,2.00
2023-03-06T23:38:14.163Z,2.00
2023-03-06T23:40:43.209Z,1.90
2023-03-06T23:43:13.093Z,2.00
2023-03-06T23:45:41.632Z,2.00
2023-03-06T23:48:42.167Z,2.00
2023-03-06T23:51:13.949Z,2.00
2023-03-06T23:53:42.520Z,2.00
2023-03-06T23:56:11.040Z,2.10
2023-03-06T23:58:41.269Z,2.10
